Time;durP1;ratioP1;P1;durP2;ratioP2;P2;SDS_P1;SDS_P2;PMS_P1;PMS_P2;Temp;Humidity;BMP_temperature;BMP_pressure;BME280_temperature;BME280_humidity;BME280_pressure;Samples;Min_cycle;Max_cycle;Signal;HPM_P1;HPM_P2
2023/08/25 00:00:29;;;;;;;456.02;420.35;;;19.60;99.90;;;;;;5050340;28;20041;-86
2023/08/25 00:02:55;;;;;;;456.35;422.33;;;19.60;99.90;;;;;;5065458;28;20046;-87
2023/08/25 00:05:21;;;;;;;546.00;502.10;;;19.50;99.90;;;;;;5091285;28;20046;-86
2023/08/25 00:07:46;;;;;;;528.28;486.83;;;19.50;99.90;;;;;;5055743;28;20079;-86
2023/08/25 00:10:13;;;;;;;535.90;494.08;;;19.50;99.90;;;;;;5057045;28;20031;-86
2023/08/25 00:12:39;;;;;;;499.25;460.30;;;19.50;99.90;;;;;;5055577;28;20040;-86
2023/08/25 00:15:05;;;;;;;537.78;495.95;;;19.40;99.90;;;;;;5072806;28;20093;-86
2023/08/25 00:17:32;;;;;;;515.13;474.58;;;19.40;99.90;;;;;;5073151;28;20119;-87
2023/08/25 00:19:58;;;;;;;591.55;544.88;;;19.30;99.90;;;;;;5051596;28;20040;-86
2023/08/25 00:22:24;;;;;;;527.10;485.95;;;19.30;99.90;;;;;;5089378;28;20047;-86
2023/08/25 00:24:52;;;;;;;506.20;466.73;;;19.30;99.90;;;;;;5064937;28;20044;-87
2023/08/25 00:27:19;;;;;;;496.85;458.33;;;19.30;99.90;;;;;;5061544;28;20053;-86
2023/08/25 00:29:44;;;;;;;463.70;427.85;;;19.20;99.90;;;;;;5083839;28;20048;-86
2023/08/25 00:32:10;;;;;;;474.67;438.98;;;19.20;99.90;;;;;;5054454;28;20040;-86
2023/08/25 00:34:36;;;;;;;569.20;523.88;;;19.20;99.90;;;;;;5052492;28;20074;-87
2023/08/25 00:37:01;;;;;;;474.55;437.90;;;19.20;99.90;;;;;;5089591;28;20044;-87
2023/08/25 00:39:27;;;;;;;487.77;449.63;;;19.10;99.90;;;;;;5067699;28;20033;-87
2023/08/25 00:41:54;;;;;;;528.92;486.65;;;19.10;99.90;;;;;;5048546;28;20070;-87
2023/08/25 00:44:20;;;;;;;489.20;451.17;;;19.10;99.90;;;;;;5067659;28;20044;-87
2023/08/25 00:46:46;;;;;;;494.85;456.40;;;19.10;99.90;;;;;;5037361;28;20044;-85
2023/08/25 00:49:13;;;;;;;521.10;479.00;;;19.00;99.90;;;;;;5044764;28;20609;-86
2023/08/25 00:51:39;;;;;;;465.83;429.88;;;19.10;99.90;;;;;;5051736;28;20581;-87
2023/08/25 00:54:06;;;;;;;411.08;379.45;;;19.10;99.90;;;;;;5054132;28;20060;-86
2023/08/25 00:56:33;;;;;;;417.27;385.85;;;19.20;99.90;;;;;;5054496;28;20048;-87
2023/08/25 00:58:59;;;;;;;398.35;368.95;;;19.20;99.90;;;;;;5068084;28;20047;-87
2023/08/25 01:01:25;;;;;;;353.73;328.20;;;19.20;99.90;;;;;;5069655;28;20422;-87
2023/08/25 01:03:52;;;;;;;281.13;261.08;;;19.30;99.90;;;;;;5054225;28;20483;-86
2023/08/25 01:06:17;;;;;;;208.38;192.75;;;19.30;99.90;;;;;;5054543;28;20071;-86
2023/08/25 01:08:43;;;;;;;200.23;185.25;;;19.30;99.90;;;;;;5070323;28;20484;-87
2023/08/25 01:11:18;;;;;;;234.18;217.43;;;19.40;99.90;;;;;;5053861;28;20415;-86
2023/08/25 01:13:47;;;;;;;235.63;219.18;;;19.40;99.90;;;;;;5053871;28;20048;-86
2023/08/25 01:16:16;;;;;;;264.65;246.20;;;19.40;99.90;;;;;;5070151;28;20173;-86
2023/08/25 01:18:44;;;;;;;326.83;303.23;;;19.50;99.90;;;;;;5044133;28;20059;-86
2023/08/25 01:21:11;;;;;;;461.92;426.77;;;19.50;99.90;;;;;;5069929;28;20028;-86
2023/08/25 01:23:47;;;;;;;546.72;503.60;;;19.50;99.90;;;;;;5054317;28;20188;-87
2023/08/25 01:26:13;;;;;;;510.17;471.00;;;19.50;99.90;;;;;;5053086;28;20047;-87
2023/08/25 01:28:42;;;;;;;522.20;481.42;;;19.50;99.90;;;;;;5053417;28;20075;-86
2023/08/25 01:31:07;;;;;;;485.00;446.90;;;19.50;99.90;;;;;;5053949;28;20040;-86
2023/08/25 01:33:34;;;;;;;459.58;423.27;;;19.50;99.90;;;;;;5054254;28;20063;-87
2023/08/25 01:36:12;;;;;;;466.05;429.05;;;19.50;99.90;;;;;;5052906;28;20059;-87
2023/08/25 01:38:46;;;;;;;463.15;426.63;;;19.50;99.90;;;;;;5070526;28;20475;-86
2023/08/25 01:41:31;;;;;;;378.17;349.58;;;19.50;99.90;;;;;;5043202;28;20044;-87
2023/08/25 01:44:03;;;;;;;478.17;441.13;;;19.50;99.90;;;;;;5069959;28;20112;-87
2023/08/25 01:46:31;;;;;;;513.55;474.13;;;19.50;99.90;;;;;;5054054;28;20044;-87
2023/08/25 01:48:59;;;;;;;476.40;440.55;;;19.40;99.90;;;;;;5070978;28;20458;-87
2023/08/25 01:51:24;;;;;;;494.85;456.35;;;19.40;99.90;;;;;;5070136;28;20039;-86
2023/08/25 01:53:54;;;;;;;517.90;476.98;;;19.40;99.90;;;;;;5053315;28;20543;-87
2023/08/25 01:56:21;;;;;;;581.03;534.97;;;19.30;99.90;;;;;;5073665;28;20403;-87
2023/08/25 01:58:48;;;;;;;554.13;510.48;;;19.30;99.90;;;;;;5070170;28;20052;-87
2023/08/25 02:01:13;;;;;;;550.05;506.42;;;19.30;99.90;;;;;;5056820;28;20511;-87
2023/08/25 02:03:39;;;;;;;553.28;508.40;;;19.20;99.90;;;;;;5068851;28;20093;-86
2023/08/25 02:06:05;;;;;;;530.20;487.75;;;19.20;99.90;;;;;;5053955;28;20044;-86
2023/08/25 02:08:30;;;;;;;583.38;537.42;;;19.10;99.90;;;;;;5070038;28;20119;-87
2023/08/25 02:10:56;;;;;;;528.85;487.27;;;19.10;99.90;;;;;;5068765;28;20113;-87
2023/08/25 02:13:22;;;;;;;617.25;568.13;;;19.10;99.90;;;;;;5047876;28;20325;-87
2023/08/25 02:15:50;;;;;;;650.33;598.55;;;19.00;99.90;;;;;;5045627;28;20048;-87
2023/08/25 02:18:16;;;;;;;642.15;591.17;;;19.00;99.90;;;;;;5065995;28;20051;-87
2023/08/25 02:20:42;;;;;;;647.20;594.65;;;19.00;99.90;;;;;;5069119;28;20040;-87
2023/08/25 02:23:08;;;;;;;669.13;615.13;;;19.00;99.90;;;;;;5047691;28;20045;-87
2023/08/25 02:25:34;;;;;;;642.63;590.03;;;18.90;99.90;;;;;;5044714;28;20048;-87
2023/08/25 02:28:00;;;;;;;591.95;543.72;;;18.90;99.90;;;;;;5047466;28;20054;-87
2023/08/25 02:30:26;;;;;;;574.03;526.65;;;18.90;99.90;;;;;;5046406;28;20036;-87
2023/08/25 02:32:52;;;;;;;557.28;511.38;;;18.90;99.90;;;;;;5038801;28;20506;-86
2023/08/25 02:35:17;;;;;;;540.35;495.75;;;18.80;99.90;;;;;;5075611;28;20048;-86
2023/08/25 02:38:00;;;;;;;592.83;542.45;;;18.80;99.90;;;;;;5052061;28;20072;-87
2023/08/25 02:40:28;;;;;;;559.72;514.22;;;18.80;99.90;;;;;;5086104;28;20055;-87
2023/08/25 02:42:55;;;;;;;625.63;573.38;;;18.70;99.90;;;;;;5087942;28;20089;-86
2023/08/25 02:45:25;;;;;;;561.08;514.47;;;18.70;99.90;;;;;;5087599;28;20044;-86
2023/08/25 02:47:52;;;;;;;563.67;517.38;;;18.70;99.90;;;;;;5052686;28;20055;-87
2023/08/25 02:50:19;;;;;;;569.35;522.95;;;18.70;99.90;;;;;;5037655;28;20101;-86
2023/08/25 02:52:45;;;;;;;572.33;524.83;;;18.60;99.90;;;;;;5042041;28;20051;-86
2023/08/25 02:55:14;;;;;;;560.22;514.05;;;18.70;99.90;;;;;;5069373;28;20089;-87
2023/08/25 02:57:41;;;;;;;566.80;519.38;;;18.80;99.90;;;;;;5069402;28;20043;-87
2023/08/25 03:00:10;;;;;;;585.75;535.65;;;18.80;99.90;;;;;;5065874;28;20351;-87
2023/08/25 03:02:36;;;;;;;540.90;496.10;;;18.90;99.90;;;;;;5060333;28;20189;-87
2023/08/25 03:05:02;;;;;;;584.08;535.42;;;18.80;99.90;;;;;;5068949;28;20131;-86
2023/08/25 03:07:28;;;;;;;642.00;588.13;;;18.90;99.90;;;;;;5051863;28;20129;-87
2023/08/25 03:09:53;;;;;;;584.78;536.95;;;18.90;99.90;;;;;;5064481;28;20037;-87
2023/08/25 03:12:19;;;;;;;644.65;591.55;;;19.00;99.90;;;;;;5060407;28;20046;-86
2023/08/25 03:14:45;;;;;;;736.85;674.53;;;19.00;99.90;;;;;;5085584;28;20431;-87
2023/08/25 03:17:11;;;;;;;690.55;632.63;;;19.00;99.90;;;;;;5069823;28;20119;-87
2023/08/25 03:19:40;;;;;;;697.20;637.15;;;19.10;99.90;;;;;;5045101;28;20451;-87
2023/08/25 03:22:05;;;;;;;685.08;627.05;;;19.10;99.90;;;;;;5058051;28;20045;-87
2023/08/25 03:24:31;;;;;;;680.40;622.30;;;19.10;99.90;;;;;;5049412;28;20056;-87
2023/08/25 03:26:57;;;;;;;658.40;603.58;;;19.10;99.90;;;;;;5073833;28;20366;-86
2023/08/25 03:29:23;;;;;;;646.92;593.03;;;19.10;99.90;;;;;;5059484;28;20068;-87
2023/08/25 03:31:49;;;;;;;629.30;577.33;;;19.10;99.90;;;;;;5061926;28;20134;-87
2023/08/25 03:34:15;;;;;;;657.47;603.20;;;19.10;99.90;;;;;;5054377;28;20170;-86
2023/08/25 03:36:41;;;;;;;581.05;533.13;;;19.10;99.90;;;;;;5072442;28;20107;-87
2023/08/25 03:39:06;;;;;;;399.80;365.75;;;19.10;99.90;;;;;;5056010;28;20051;-87
2023/08/25 03:41:32;;;;;;;413.33;376.25;;;19.10;99.90;;;;;;5062606;28;20491;-86
2023/08/25 03:43:58;;;;;;;444.27;404.40;;;19.10;99.90;;;;;;5052785;28;20055;-87
2023/08/25 03:46:23;;;;;;;427.55;388.17;;;19.10;99.90;;;;;;5045475;28;20121;-87
2023/08/25 03:48:51;;;;;;;434.73;395.70;;;19.10;99.90;;;;;;5053106;28;20044;-87
2023/08/25 03:51:16;;;;;;;503.17;457.75;;;19.20;99.90;;;;;;5062091;28;20467;-87
2023/08/25 03:53:42;;;;;;;442.90;403.70;;;19.00;99.90;;;;;;5075143;28;20119;-87
2023/08/25 03:56:08;;;;;;;489.88;446.77;;;19.00;99.90;;;;;;5071151;28;20430;-87
2023/08/25 03:58:33;;;;;;;476.35;435.10;;;19.10;99.90;;;;;;5072655;28;20060;-87
2023/08/25 04:00:59;;;;;;;551.33;502.77;;;19.10;99.90;;;;;;5044791;28;20044;-86
2023/08/25 04:03:25;;;;;;;574.05;523.83;;;19.00;99.90;;;;;;5054109;28;20122;-87
2023/08/25 04:05:51;;;;;;;575.60;525.55;;;19.00;99.90;;;;;;5055453;28;20101;-87
2023/08/25 04:08:16;;;;;;;589.97;541.47;;;19.10;99.90;;;;;;5051862;28;20044;-87
2023/08/25 04:10:43;;;;;;;707.70;645.78;;;19.00;99.90;;;;;;5045291;28;20131;-87
2023/08/25 04:13:09;;;;;;;711.08;648.42;;;19.00;99.90;;;;;;5072618;28;20068;-87
2023/08/25 04:15:38;;;;;;;745.85;678.08;;;18.90;99.90;;;;;;5055458;28;20067;-86
2023/08/25 04:18:05;;;;;;;726.33;659.08;;;18.90;99.90;;;;;;5071623;28;20052;-87
2023/08/25 04:20:32;;;;;;;734.63;667.45;;;18.90;99.90;;;;;;5055613;28;20036;-87
2023/08/25 04:22:59;;;;;;;734.80;666.40;;;19.00;99.90;;;;;;5050751;28;20059;-87
2023/08/25 04:25:27;;;;;;;755.83;685.08;;;18.90;99.90;;;;;;5062967;28;20097;-86
2023/08/25 04:27:53;;;;;;;718.00;651.47;;;18.90;99.90;;;;;;5054341;28;20596;-86
2023/08/25 04:30:22;;;;;;;733.53;666.85;;;18.90;99.90;;;;;;5061351;28;20043;-87
2023/08/25 04:32:49;;;;;;;750.08;681.38;;;18.90;99.90;;;;;;5067003;28;20044;-87
2023/08/25 04:35:15;;;;;;;766.20;696.38;;;18.90;99.90;;;;;;5053633;28;20101;-87
2023/08/25 04:37:43;;;;;;;768.05;701.42;;;18.90;99.90;;;;;;5044092;28;20105;-86
2023/08/25 04:40:10;;;;;;;760.60;689.58;;;18.80;99.90;;;;;;5052297;28;20052;-87
2023/08/25 04:42:38;;;;;;;728.40;659.63;;;18.80;99.90;;;;;;5071023;28;20040;-87
2023/08/25 04:45:04;;;;;;;686.90;626.88;;;18.90;99.90;;;;;;5069201;28;20044;-86
2023/08/25 04:47:30;;;;;;;677.78;618.50;;;18.80;99.90;;;;;;5087709;28;20044;-87
2023/08/25 04:49:57;;;;;;;668.30;607.33;;;18.80;99.90;;;;;;5052807;28;20085;-87
2023/08/25 04:52:23;;;;;;;614.40;561.20;;;18.80;99.90;;;;;;5069173;28;20475;-87
2023/08/25 04:54:49;;;;;;;648.20;591.45;;;18.90;99.90;;;;;;5068577;28;20435;-87
2023/08/25 04:57:15;;;;;;;614.20;560.85;;;18.90;99.90;;;;;;5088873;28;20048;-87
2023/08/25 04:59:41;;;;;;;625.72;570.95;;;18.90;99.90;;;;;;5070142;28;20138;-87
2023/08/25 05:02:07;;;;;;;645.50;588.58;;;18.90;99.90;;;;;;5055113;28;20055;-86
2023/08/25 05:04:33;;;;;;;665.33;605.83;;;19.00;99.90;;;;;;5054328;28;20040;-87
2023/08/25 05:06:59;;;;;;;673.88;613.22;;;19.00;99.90;;;;;;5084749;28;20121;-87
2023/08/25 05:09:24;;;;;;;659.40;599.45;;;19.00;99.90;;;;;;5070446;28;20768;-87
2023/08/25 05:11:50;;;;;;;631.63;576.92;;;18.90;99.90;;;;;;5052890;28;20049;-86
2023/08/25 05:14:16;;;;;;;605.35;553.95;;;19.00;99.90;;;;;;5053520;28;20094;-87
2023/08/25 05:16:42;;;;;;;650.05;593.60;;;19.00;99.90;;;;;;5069737;28;20067;-87
2023/08/25 05:19:09;;;;;;;588.22;537.03;;;19.00;99.90;;;;;;5050773;28;20505;-87
2023/08/25 05:21:35;;;;;;;629.47;573.75;;;19.00;99.90;;;;;;5069554;28;20395;-86
2023/08/25 05:24:20;;;;;;;589.75;538.50;;;19.00;99.90;;;;;;5039904;28;20442;-86
2023/08/25 05:26:47;;;;;;;625.08;569.78;;;19.10;99.90;;;;;;5053242;28;20173;-87
2023/08/25 05:29:14;;;;;;;578.90;529.15;;;19.10;99.90;;;;;;5052972;28;20054;-87
2023/08/25 05:31:40;;;;;;;572.40;522.30;;;19.10;99.90;;;;;;5069871;28;20035;-86
2023/08/25 05:34:06;;;;;;;661.67;602.40;;;19.20;99.90;;;;;;5051548;28;20062;-86
2023/08/25 05:36:32;;;;;;;694.60;630.85;;;19.20;99.90;;;;;;5053260;28;20035;-87
2023/08/25 05:38:58;;;;;;;680.45;618.17;;;19.20;99.90;;;;;;5051156;28;20469;-86
2023/08/25 05:41:23;;;;;;;688.30;626.20;;;19.30;99.90;;;;;;5069398;28;20040;-86
2023/08/25 05:43:49;;;;;;;598.90;542.85;;;19.30;99.90;;;;;;5051525;28;20087;-87
2023/08/25 05:46:15;;;;;;;736.10;667.70;;;19.30;99.90;;;;;;5054545;28;20079;-87
2023/08/25 05:48:42;;;;;;;732.60;664.72;;;19.30;99.90;;;;;;5085498;28;20045;-86
2023/08/25 05:51:07;;;;;;;790.28;716.38;;;19.30;99.90;;;;;;5054083;28;20052;-87
2023/08/25 05:53:33;;;;;;;759.00;688.22;;;19.40;99.90;;;;;;5048468;28;20119;-86
2023/08/25 05:55:59;;;;;;;791.00;716.97;;;19.40;99.90;;;;;;5068334;28;20515;-87
2023/08/25 05:58:24;;;;;;;772.88;702.03;;;19.40;99.90;;;;;;5066678;28;20554;-86
2023/08/25 06:00:50;;;;;;;815.90;739.13;;;19.40;99.90;;;;;;5069793;28;20046;-87
2023/08/25 06:03:16;;;;;;;779.22;708.13;;;19.50;99.90;;;;;;5052664;28;20526;-86
2023/08/25 06:05:43;;;;;;;808.22;732.97;;;19.50;99.90;;;;;;5060300;28;20060;-87
2023/08/25 06:08:08;;;;;;;764.38;693.38;;;19.50;99.90;;;;;;5050198;28;20066;-87
2023/08/25 06:10:35;;;;;;;786.72;714.58;;;19.50;99.90;;;;;;5052519;28;20562;-87
2023/08/25 06:13:01;;;;;;;835.67;756.92;;;19.50;99.90;;;;;;5044357;28;20044;-87
2023/08/25 06:15:27;;;;;;;792.13;719.33;;;19.50;99.90;;;;;;5052763;28;20043;-87
2023/08/25 06:17:52;;;;;;;829.45;752.67;;;19.50;99.90;;;;;;5050041;28;20036;-88
2023/08/25 06:20:21;;;;;;;781.92;709.60;;;19.50;99.90;;;;;;5053455;28;20564;-89
2023/08/25 06:22:46;;;;;;;782.13;710.25;;;19.50;99.90;;;;;;5052628;28;20042;-89
2023/08/25 06:25:13;;;;;;;831.17;753.97;;;19.50;99.90;;;;;;5050987;28;20123;-88
2023/08/25 06:27:39;;;;;;;781.13;709.08;;;19.50;99.90;;;;;;5048496;28;20207;-89
2023/08/25 06:30:05;;;;;;;799.78;725.80;;;19.50;99.90;;;;;;5042050;28;20036;-88
2023/08/25 06:32:33;;;;;;;854.60;771.65;;;19.50;99.90;;;;;;5068284;28;20514;-88
2023/08/25 06:34:59;;;;;;;871.10;789.88;;;19.60;99.90;;;;;;5052124;28;20051;-88
2023/08/25 06:37:25;;;;;;;871.78;787.03;;;19.60;99.90;;;;;;5087136;28;20039;-88
2023/08/25 06:39:51;;;;;;;872.47;789.15;;;19.60;99.90;;;;;;5050556;28;20044;-89
2023/08/25 06:42:19;;;;;;;886.53;800.42;;;19.60;99.90;;;;;;5052174;28;20472;-89
2023/08/25 06:44:45;;;;;;;893.17;809.88;;;19.70;99.90;;;;;;5049054;28;20054;-89
2023/08/25 06:47:11;;;;;;;866.65;786.75;;;19.70;99.90;;;;;;5040123;28;20032;-88
2023/08/25 06:49:37;;;;;;;871.58;793.25;;;19.80;99.90;;;;;;5068785;28;20058;-88
2023/08/25 06:52:03;;;;;;;894.53;812.85;;;19.80;99.90;;;;;;5051733;28;20059;-90
2023/08/25 06:54:28;;;;;;;832.60;756.50;;;19.80;99.90;;;;;;5059330;28;20162;-96
2023/08/25 06:56:56;;;;;;;832.70;756.47;;;19.80;99.90;;;;;;5047660;28;20383;-95
2023/08/25 06:59:22;;;;;;;763.58;692.67;;;19.90;99.90;;;;;;5044608;28;20040;-94
2023/08/25 07:01:51;;;;;;;609.67;555.53;;;19.90;99.90;;;;;;5054170;28;20067;-95
2023/08/25 07:04:17;;;;;;;840.17;761.92;;;20.00;99.90;;;;;;5055281;28;20200;-95
2023/08/25 07:06:42;;;;;;;810.60;738.03;;;20.00;99.90;;;;;;5054231;28;20566;-94
2023/08/25 07:09:08;;;;;;;808.67;736.72;;;20.10;99.90;;;;;;5063027;28;20043;-93
2023/08/25 07:11:34;;;;;;;800.58;729.47;;;20.10;99.90;;;;;;5052959;28;20032;-94
2023/08/25 07:14:00;;;;;;;786.20;717.25;;;20.10;99.90;;;;;;5062667;28;20127;-95
2023/08/25 07:16:28;;;;;;;653.53;591.55;;;20.10;99.90;;;;;;5050982;28;20137;-94
2023/08/25 07:18:54;;;;;;;665.10;601.75;;;20.10;99.90;;;;;;5068945;28;20097;-96
2023/08/25 07:21:28;;;;;;;714.35;645.85;;;20.20;99.90;;;;;;5069135;28;20079;-96
2023/08/25 07:24:10;;;;;;;691.22;628.08;;;20.10;99.90;;;;;;5066319;28;20063;-94
2023/08/25 07:26:35;;;;;;;694.67;630.90;;;20.10;99.90;;;;;;5045518;28;20124;-87
2023/08/25 07:29:01;;;;;;;746.40;677.67;;;20.10;99.90;;;;;;5048343;28;20053;-87
2023/08/25 07:31:27;;;;;;;744.75;674.63;;;20.10;99.90;;;;;;5051520;28;20044;-87
2023/08/25 07:33:53;;;;;;;685.58;623.13;;;20.10;99.90;;;;;;5066926;28;20036;-87
2023/08/25 07:36:19;;;;;;;787.83;715.67;;;20.20;99.90;;;;;;5051183;28;20125;-86
2023/08/25 07:38:45;;;;;;;810.75;733.63;;;20.20;99.90;;;;;;5068022;28;20093;-87
2023/08/25 07:41:15;;;;;;;774.95;696.42;;;20.30;99.90;;;;;;5049682;28;20052;-86
2023/08/25 07:43:41;;;;;;;902.28;817.17;;;20.30;99.90;;;;;;5052136;28;20444;-87
2023/08/25 07:46:07;;;;;;;857.08;777.30;;;20.40;99.90;;;;;;5052565;28;20047;-87
2023/08/25 07:48:33;;;;;;;739.85;665.63;;;20.40;99.90;;;;;;5049567;28;20059;-87
2023/08/25 07:50:59;;;;;;;887.70;803.38;;;20.50;99.90;;;;;;5058497;28;20095;-87
2023/08/25 07:53:24;;;;;;;810.53;733.63;;;20.60;99.90;;;;;;5049351;28;20043;-87
2023/08/25 07:55:50;;;;;;;791.83;713.05;;;20.70;99.90;;;;;;5049028;28;20123;-87
2023/08/25 07:58:16;;;;;;;916.70;822.92;;;20.70;99.90;;;;;;5067545;28;20067;-88
2023/08/25 08:00:43;;;;;;;484.88;436.42;;;20.70;99.90;;;;;;5065183;28;20050;-88
2023/08/25 08:03:09;;;;;;;892.58;805.50;;;20.70;99.90;;;;;;5069367;28;20410;-89
2023/08/25 08:05:38;;;;;;;602.80;546.60;;;20.80;99.90;;;;;;5053941;28;20048;-89
2023/08/25 08:08:04;;;;;;;457.98;400.52;;;20.70;99.90;;;;;;5053708;28;20569;-89
2023/08/25 08:10:30;;;;;;;540.30;489.42;;;20.70;99.90;;;;;;5043427;28;20040;-88
2023/08/25 08:12:56;;;;;;;816.83;739.25;;;20.70;99.90;;;;;;5069324;28;20110;-89
2023/08/25 08:15:23;;;;;;;910.00;821.90;;;20.70;99.90;;;;;;5056767;28;20325;-89
2023/08/25 08:17:48;;;;;;;916.30;820.55;;;20.70;99.90;;;;;;5072716;28;20105;-88
2023/08/25 08:20:14;;;;;;;863.47;779.08;;;20.80;99.90;;;;;;5056519;28;20040;-89
2023/08/25 08:22:41;;;;;;;895.72;806.20;;;20.80;99.90;;;;;;5072570;28;20070;-88
2023/08/25 08:25:10;;;;;;;814.30;727.53;;;20.90;99.90;;;;;;5072644;28;20071;-88
2023/08/25 08:27:36;;;;;;;824.75;744.35;;;20.90;99.90;;;;;;5072856;28;20087;-89
2023/08/25 08:30:03;;;;;;;884.78;800.47;;;21.00;99.90;;;;;;5057218;28;20474;-89
2023/08/25 08:32:28;;;;;;;929.95;838.85;;;21.20;99.90;;;;;;5072588;28;20064;-89
2023/08/25 08:34:54;;;;;;;750.40;671.53;;;21.30;99.90;;;;;;5056784;28;20040;-95
2023/08/25 08:37:28;;;;;;;592.88;518.28;;;21.30;99.90;;;;;;5076093;28;21468;-94
2023/08/25 08:39:57;;;;;;;738.05;660.42;;;21.30;99.90;;;;;;5058566;28;20086;-92
2023/08/25 08:42:26;;;;;;;629.28;561.05;;;21.40;99.90;;;;;;5058214;28;20321;-95
2023/08/25 08:44:57;;;;;;;821.70;708.45;;;21.40;99.90;;;;;;5056539;28;20445;-94
2023/08/25 08:47:35;;;;;;;671.13;591.13;;;21.50;99.90;;;;;;5057018;28;20136;-93
2023/08/25 08:50:08;;;;;;;689.83;627.97;;;21.50;99.90;;;;;;5074076;28;20039;-92
2023/08/25 08:52:34;;;;;;;;;;;21.50;99.90;;;;;;5069900;28;20044;-94
2023/08/25 08:55:01;;;;;;;619.95;568.58;;;21.40;99.90;;;;;;5050644;28;19942;-94
2023/08/25 08:57:28;;;;;;;579.25;528.72;;;21.40;99.90;;;;;;5061851;28;20040;-93
2023/08/25 08:59:59;;;;;;;460.13;414.63;;;21.40;99.90;;;;;;5071468;28;20044;-93
2023/08/25 09:02:28;;;;;;;455.10;408.92;;;21.40;99.90;;;;;;5073723;28;20048;-93
2023/08/25 09:04:58;;;;;;;451.42;405.42;;;21.40;99.90;;;;;;5056002;28;20153;-93
2023/08/25 09:07:32;;;;;;;501.73;453.75;;;21.40;99.90;;;;;;5074372;28;20447;-94
2023/08/25 09:09:59;;;;;;;714.60;653.60;;;21.50;99.90;;;;;;5072816;28;20104;-95
2023/08/25 09:12:34;;;;;;;397.52;358.35;;;21.50;99.90;;;;;;5056276;28;20143;-96
2023/08/25 09:15:00;;;;;;;538.67;488.42;;;21.50;99.90;;;;;;5056164;28;20044;-94
2023/08/25 09:17:29;;;;;;;385.98;348.58;;;21.50;99.90;;;;;;5052531;28;20117;-92
2023/08/25 09:20:04;;;;;;;713.42;653.03;;;21.60;99.90;;;;;;5049982;28;20044;-91
2023/08/25 09:22:30;;;;;;;690.33;632.08;;;21.70;99.90;;;;;;5072125;28;20052;-92
2023/08/25 09:24:58;;;;;;;300.45;273.10;;;21.70;99.90;;;;;;5064012;28;20502;-90
2023/08/25 09:27:26;;;;;;;468.25;427.30;;;21.80;99.90;;;;;;5056544;28;20044;-91
2023/08/25 09:30:06;;;;;;;600.55;547.03;;;21.70;99.90;;;;;;5068902;28;20075;-91
2023/08/25 09:32:32;;;;;;;549.38;500.40;;;21.70;99.90;;;;;;5053155;28;20097;-91
2023/08/25 09:35:21;;;;;;;705.50;642.60;;;21.70;99.90;;;;;;5049333;28;20074;-91
2023/08/25 09:38:03;;;;;;;663.17;605.85;;;21.60;99.90;;;;;;5053064;28;20053;-91
2023/08/25 09:40:32;;;;;;;689.50;622.65;;;21.60;99.90;;;;;;5071762;28;20119;-91
2023/08/25 09:43:07;;;;;;;569.63;521.08;;;21.60;99.90;;;;;;5046095;28;20094;-91
2023/08/25 09:45:33;;;;;;;472.95;425.10;;;21.70;99.90;;;;;;5055109;28;20043;-92
2023/08/25 09:48:10;;;;;;;849.70;771.20;;;21.80;99.90;;;;;;5048457;28;20059;-93
2023/08/25 09:50:45;;;;;;;388.63;349.25;;;22.00;99.90;;;;;;5067257;28;20036;-93
2023/08/25 09:53:13;;;;;;;463.30;418.80;;;22.20;99.90;;;;;;5055370;28;20481;-95
2023/08/25 09:55:42;;;;;;;603.40;552.22;;;22.40;99.90;;;;;;5052266;28;20044;-96
2023/08/25 09:58:09;;;;;;;611.67;556.78;;;22.70;99.90;;;;;;5063208;28;20041;-94
2023/08/25 10:00:53;;;;;;;629.00;572.28;;;22.70;99.90;;;;;;5051745;28;20040;-95
2023/08/25 10:03:22;;;;;;;552.40;502.90;;;22.80;99.90;;;;;;5059209;28;20075;-94
2023/08/25 10:05:50;;;;;;;745.72;681.25;;;22.90;99.90;;;;;;5060490;28;20040;-96
2023/08/25 10:08:50;;;;;;;731.05;669.55;;;22.90;99.90;;;;;;5055939;28;20135;-94
2023/08/25 10:11:28;;;;;;;693.25;636.03;;;22.80;99.90;;;;;;5059364;28;20043;-96
2023/08/25 10:13:56;;;;;;;674.97;619.65;;;22.80;99.90;;;;;;5058630;28;20483;-93
2023/08/25 10:16:26;;;;;;;351.08;321.85;;;22.70;99.90;;;;;;5056376;28;20098;-93
2023/08/25 10:18:54;;;;;;;413.45;380.83;;;22.50;99.90;;;;;;5071997;28;20438;-93
2023/08/25 10:21:35;;;;;;;553.75;507.60;;;22.40;99.90;;;;;;5069103;28;20029;-91
2023/08/25 10:24:02;;;;;;;431.73;396.75;;;22.30;99.90;;;;;;5043881;28;20071;-92
2023/08/25 10:26:29;;;;;;;506.77;462.98;;;22.20;99.90;;;;;;5089367;28;20572;-92
2023/08/25 10:29:01;;;;;;;626.47;572.53;;;22.10;99.90;;;;;;5056635;28;20048;-89
2023/08/25 10:31:30;;;;;;;430.60;393.02;;;22.00;99.90;;;;;;5056531;28;20059;-89
2023/08/25 10:34:08;;;;;;;615.65;560.25;;;22.00;99.90;;;;;;5044705;28;20504;-89
2023/08/25 10:36:42;;;;;;;621.58;567.17;;;22.00;99.90;;;;;;5047567;28;20418;-85
2023/08/25 10:39:09;;;;;;;798.33;726.90;;;21.90;99.90;;;;;;5054333;28;20048;-86
2023/08/25 10:41:44;;;;;;;674.10;616.65;;;21.90;99.90;;;;;;5072129;28;20076;-87
2023/08/25 10:44:20;;;;;;;730.85;664.83;;;21.90;99.90;;;;;;5055262;28;20138;-87
2023/08/25 10:46:46;;;;;;;847.90;768.35;;;21.90;99.90;;;;;;5068720;28;20047;-87
2023/08/25 10:49:13;;;;;;;916.88;830.72;;;21.90;99.90;;;;;;5069414;28;20497;-87
2023/08/25 10:51:39;;;;;;;856.53;778.58;;;21.90;99.90;;;;;;5071378;28;20040;-87
2023/08/25 10:54:31;;;;;;;809.03;736.22;;;21.90;99.90;;;;;;5072316;28;20044;-86
2023/08/25 10:57:05;;;;;;;879.67;800.88;;;21.80;99.90;;;;;;5079819;28;20048;-87
2023/08/25 10:59:37;;;;;;;847.85;773.80;;;21.80;99.90;;;;;;5047422;28;20043;-88
2023/08/25 11:02:08;;;;;;;836.25;760.45;;;21.70;99.90;;;;;;5050411;28;20040;-85
2023/08/25 11:04:45;;;;;;;728.83;668.38;;;21.70;99.90;;;;;;5067239;28;20483;-86
2023/08/25 11:07:51;;;;;;;690.22;627.88;;;21.70;99.90;;;;;;5047631;28;20131;-87
2023/08/25 11:10:21;;;;;;;816.03;742.08;;;21.80;99.90;;;;;;5069660;28;20060;-91
2023/08/25 11:12:52;;;;;;;856.58;776.53;;;21.80;99.90;;;;;;5055942;28;20134;-91
2023/08/25 11:15:18;;;;;;;814.17;742.63;;;21.70;99.90;;;;;;5055665;28;20469;-91
2023/08/25 11:17:45;;;;;;;757.40;688.45;;;21.70;99.90;;;;;;5071682;28;20127;-91
2023/08/25 11:20:14;;;;;;;856.63;777.88;;;21.70;99.90;;;;;;5049663;28;20071;-91
2023/08/25 11:23:05;;;;;;;756.95;683.95;;;21.70;99.90;;;;;;5044818;28;20056;-92
2023/08/25 11:25:46;;;;;;;795.60;724.28;;;21.60;99.90;;;;;;5054454;28;20131;-91
2023/08/25 11:28:25;;;;;;;737.55;674.45;;;21.70;99.90;;;;;;5037608;28;20044;-92
2023/08/25 11:30:58;;;;;;;867.03;787.80;;;21.60;99.90;;;;;;5051951;28;20040;-92
2023/08/25 11:33:41;;;;;;;847.25;768.25;;;21.60;99.90;;;;;;5051550;28;20039;-91
2023/08/25 11:39:34;;;;;;;;;;;;;;;;;;;;;
2023/08/25 11:42:12;;;;;;;799.33;725.85;;;21.50;99.90;;;;;;5040161;28;20511;-91
2023/08/25 11:45:27;;;;;;;862.22;773.70;;;21.50;99.90;;;;;;5061836;28;20526;-91
2023/08/25 11:48:20;;;;;;;795.70;726.03;;;21.40;99.90;;;;;;5070894;28;20064;-92
2023/08/25 11:50:47;;;;;;;592.47;532.92;;;21.30;99.90;;;;;;5059633;28;20514;-90
2023/08/25 11:53:13;;;;;;;570.17;510.90;;;21.30;99.90;;;;;;5047840;28;20411;-88
2023/08/25 11:55:42;;;;;;;590.83;531.20;;;21.20;99.90;;;;;;5049257;28;20033;-86
2023/08/25 11:58:09;;;;;;;568.33;514.08;;;21.20;99.90;;;;;;5030810;28;20128;-88
2023/08/25 12:01:00;;;;;;;593.20;536.95;;;21.10;99.90;;;;;;5055661;28;20497;-87
2023/08/25 12:03:27;;;;;;;789.17;714.78;;;21.00;99.90;;;;;;5034285;28;20071;-89
2023/08/25 12:05:52;;;;;;;857.72;774.38;;;21.10;99.90;;;;;;5053283;28;20537;-87
2023/08/25 12:08:18;;;;;;;705.25;636.58;;;21.10;99.90;;;;;;5054276;28;20135;-89
2023/08/25 12:10:53;;;;;;;831.13;754.40;;;21.20;99.90;;;;;;5046546;28;20041;-91
2023/08/25 12:13:46;;;;;;;708.60;640.47;;;21.20;99.90;;;;;;5052368;28;20052;-89
2023/08/25 12:16:13;;;;;;;786.45;707.53;;;21.20;99.90;;;;;;5027082;28;20071;-89
2023/08/25 12:18:41;;;;;;;664.13;605.10;;;21.20;99.90;;;;;;5040611;28;20418;-89
2023/08/25 12:21:07;;;;;;;613.67;556.40;;;21.40;99.90;;;;;;5056634;28;20476;-89